SBCP/CAW METAR and TAF weather

Enter ICAO airport designator
Station Type Date Time Source
SBCP METAR 2024/02/26 18:00 UTC NOAA

SBCP 261800Z 12008KT 9999 SCT025 32/24 Q1014


Station Type Date Time Source
SBCP Decoded METAR 2024/02/26 18:00 UTC NOAA

Campos, Brazil (SBCP) 21-45S 041-20W 11M
Feb 26, 2024 - 01:00 PM EST / 2024.02.26 1800 UTC
Wind: from the ESE (120 degrees) at 9 MPH (8 KT):0
Visibility: greater than 7 mile(s):0
Sky conditions: partly cloudy
Temperature: 89 F (32 C)
Heat index: 98.4 F (36.9 C):1
Dew Point: 75 F (24 C)
Relative Humidity: 62%
Pressure (altimeter): 29.94 in. Hg (1014 hPa)
ob: SBCP 261800Z 12008KT 9999 SCT025 32/24 Q1014
cycle: 18

Station Type Date Time Source
SBCP TAF 2024/02/26 18:00 UTC NOAA